createdAt,value
2022-07-27T00:00:21.245Z,61.38
2022-07-27T00:05:24.437Z,61.48
2022-07-27T00:10:27.114Z,60.97
2022-07-27T00:15:31.814Z,61.15
2022-07-27T00:20:34.682Z,61.07
2022-07-27T00:25:37.702Z,61.32
2022-07-27T00:30:41.884Z,61.29
2022-07-27T00:35:44.586Z,61.25
2022-07-27T00:40:47.281Z,60.98
2022-07-27T00:45:51.604Z,60.69
2022-07-27T00:50:54.562Z,60.63
2022-07-27T00:55:57.472Z,60.46
2022-07-27T01:01:01.731Z,60.31
2022-07-27T01:06:04.769Z,60.39
2022-07-27T01:11:09.942Z,60.21
2022-07-27T01:16:14.151Z,60.43
2022-07-27T01:21:17.077Z,60.54
2022-07-27T01:26:21.498Z,60.29
2022-07-27T01:31:24.274Z,60.08
2022-07-27T01:36:27.384Z,59.94
2022-07-27T01:41:31.592Z,59.98
2022-07-27T01:46:34.605Z,59.49
2022-07-27T01:51:37.485Z,59.56
2022-07-27T01:56:42.088Z,59.64
2022-07-27T02:01:45.194Z,59.46
2022-07-27T02:06:48.232Z,59.24
2022-07-27T02:12:09.834Z,58.94
2022-07-27T02:17:12.920Z,58.74
2022-07-27T02:22:18.130Z,58.58
2022-07-27T02:27:22.279Z,58.21
2022-07-27T02:32:25.063Z,58.10
2022-07-27T02:37:27.975Z,57.85
2022-07-27T02:42:32.112Z,57.76
2022-07-27T02:47:34.922Z,57.45
2022-07-27T02:52:38.052Z,57.37
2022-07-27T02:57:42.059Z,57.50
2022-07-27T03:02:49.416Z,57.47
2022-07-27T03:07:52.082Z,57.47
2022-07-27T03:12:56.071Z,57.49
2022-07-27T03:17:58.961Z,57.23
2022-07-27T03:23:01.862Z,57.13
2022-07-27T03:28:06.517Z,57.32
2022-07-27T03:33:09.279Z,57.28
2022-07-27T03:38:12.262Z,57.30
2022-07-27T03:43:16.385Z,57.16
2022-07-27T03:48:18.984Z,57.15
2022-07-27T03:53:22.059Z,56.87
2022-07-27T03:58:26.176Z,56.99
2022-07-27T04:03:28.903Z,56.89
2022-07-27T04:08:31.770Z,57.07
2022-07-27T04:13:38.170Z,57.21
2022-07-27T04:18:40.973Z,57.02
2022-07-27T04:23:44.271Z,56.89
2022-07-27T04:28:48.673Z,56.58
2022-07-27T04:33:51.610Z,56.98
2022-07-27T04:38:54.354Z,56.74
2022-07-27T04:43:58.713Z,56.52
2022-07-27T04:49:01.914Z,56.51
2022-07-27T04:54:05.026Z,56.30
2022-07-27T04:59:09.404Z,56.01
2022-07-27T05:04:12.398Z,55.96
2022-07-27T05:09:15.494Z,56.33
2022-07-27T05:14:26.606Z,55.80
2022-07-27T05:19:40.434Z,55.99
2022-07-27T05:24:43.629Z,56.35
2022-07-27T05:29:47.784Z,55.82
2022-07-27T05:34:50.731Z,55.74
2022-07-27T05:39:53.609Z,55.89
2022-07-27T05:44:57.805Z,55.75
2022-07-27T05:50:01.261Z,55.66
2022-07-27T05:55:04.099Z,55.68
2022-07-27T06:00:10.118Z,55.83
2022-07-27T06:05:17.432Z,55.90
2022-07-27T06:10:20.603Z,55.65
2022-07-27T06:15:25.151Z,55.58
2022-07-27T06:20:28.317Z,55.74
2022-07-27T06:25:35.713Z,55.62
2022-07-27T06:30:43.042Z,55.59
2022-07-27T06:35:45.689Z,55.70
2022-07-27T06:40:52.800Z,55.61
2022-07-27T06:45:58.196Z,55.63
2022-07-27T06:51:01.469Z,55.50
2022-07-27T06:56:05.313Z,55.84
2022-07-27T07:01:09.743Z,55.61
2022-07-27T07:06:12.513Z,55.65
2022-07-27T07:11:15.450Z,55.67
2022-07-27T07:16:19.607Z,55.22
2022-07-27T07:21:22.466Z,55.05
2022-07-27T07:26:25.424Z,54.87
2022-07-27T07:31:29.916Z,55.08
2022-07-27T07:36:33.012Z,55.00
2022-07-27T07:41:36.739Z,54.91
2022-07-27T07:46:45.283Z,54.87
2022-07-27T07:51:49.812Z,54.21
2022-07-27T07:56:52.485Z,53.69
2022-07-27T08:01:56.635Z,53.05
2022-07-27T08:06:59.342Z,52.74
2022-07-27T08:12:02.065Z,52.64
2022-07-27T08:17:06.153Z,52.82
2022-07-27T08:22:09.195Z,53.09
2022-07-27T08:27:12.215Z,53.09
2022-07-27T08:32:16.420Z,52.38
2022-07-27T08:37:19.344Z,50.90
2022-07-27T08:42:22.256Z,50.48
2022-07-27T08:47:26.925Z,50.27
2022-07-27T08:52:29.789Z,50.45
2022-07-27T08:57:32.652Z,50.07
2022-07-27T09:02:38.154Z,50.23
2022-07-27T09:07:41.041Z,50.67
2022-07-27T09:12:43.803Z,50.30
2022-07-27T09:17:49.753Z,49.90
2022-07-27T09:22:53.989Z,49.58
2022-07-27T09:27:58.598Z,50.21
2022-07-27T09:33:04.576Z,50.10
2022-07-27T09:38:25.438Z,49.88
2022-07-27T09:48:56.186Z,51.19
2022-07-27T09:54:01.490Z,51.16
2022-07-27T09:59:04.948Z,50.87
2022-07-27T10:04:09.789Z,51.14
2022-07-27T10:09:12.921Z,49.87
2022-07-27T10:14:16.345Z,49.34
2022-07-27T10:19:23.069Z,47.98
2022-07-27T10:24:28.816Z,48.03
2022-07-27T10:29:32.513Z,48.07
2022-07-27T10:34:38.482Z,47.66
2022-07-27T10:39:43.115Z,48.34
2022-07-27T10:45:07.477Z,48.14
2022-07-27T10:50:31.860Z,47.29
2022-07-27T10:55:51.511Z,46.46
2022-07-27T11:01:01.615Z,46.58
2022-07-27T11:06:31.430Z,46.27
2022-07-27T11:11:34.365Z,45.79
2022-07-27T11:16:54.898Z,45.57
2022-07-27T11:22:04.468Z,45.59
2022-07-27T11:27:16.386Z,45.65
2022-07-27T11:32:20.944Z,45.27
2022-07-27T11:37:25.163Z,43.69
2022-07-27T11:42:38.088Z,42.38
2022-07-27T11:47:41.844Z,42.41
2022-07-27T11:52:45.912Z,42.93
2022-07-27T11:57:48.666Z,43.15
2022-07-27T12:02:52.285Z,42.42
2022-07-27T12:07:56.466Z,43.06
2022-07-27T12:12:59.271Z,41.19
2022-07-27T12:18:02.216Z,41.10
2022-07-27T12:23:07.832Z,40.81
2022-07-27T12:28:12.860Z,42.52
2022-07-27T12:33:27.353Z,43.39
2022-07-27T12:38:39.740Z,43.53
2022-07-27T12:43:42.692Z,43.61
2022-07-27T12:48:45.564Z,37.74
2022-07-27T12:53:49.730Z,38.73
2022-07-27T12:59:00.246Z,41.95
2022-07-27T13:04:02.974Z,42.83
2022-07-27T13:09:07.012Z,42.64
2022-07-27T13:14:09.827Z,40.62
2022-07-27T13:19:14.286Z,40.80
2022-07-27T13:24:18.653Z,39.03
2022-07-27T13:29:21.789Z,39.40
2022-07-27T13:34:24.677Z,40.60
2022-07-27T13:39:29.766Z,38.83
2022-07-27T13:45:02.195Z,38.90
2022-07-27T13:49:59.968Z,40.09
2022-07-27T13:55:04.237Z,40.64
2022-07-27T14:00:12.149Z,38.99
2022-07-27T14:05:20.043Z,35.21
2022-07-27T14:10:39.560Z,34.19
2022-07-27T14:15:52.585Z,32.77
2022-07-27T14:20:59.683Z,27.53
2022-07-27T14:26:05.521Z,33.77
2022-07-27T14:31:10.150Z,36.24
2022-07-27T14:36:13.319Z,37.00
2022-07-27T14:41:17.426Z,32.78
2022-07-27T14:46:20.172Z,36.73
2022-07-27T14:51:22.957Z,38.55
2022-07-27T14:56:26.962Z,26.95
2022-07-27T15:01:29.862Z,33.11
2022-07-27T15:06:38.758Z,37.58
2022-07-27T15:11:43.220Z,38.92
2022-07-27T15:16:46.567Z,35.05
2022-07-27T15:21:49.507Z,26.46
2022-07-27T15:26:53.631Z,27.30
2022-07-27T15:31:56.634Z,28.70
2022-07-27T15:36:59.609Z,29.54
2022-07-27T15:42:03.753Z,31.10
2022-07-27T15:47:11.719Z,31.25
2022-07-27T15:52:14.548Z,28.50
2022-07-27T15:57:18.629Z,26.43
2022-07-27T16:02:24.771Z,26.54
2022-07-27T16:07:28.249Z,25.45
2022-07-27T16:12:44.909Z,26.74
2022-07-27T16:17:47.635Z,28.40
2022-07-27T16:22:51.175Z,28.82
2022-07-27T16:27:55.249Z,29.55
2022-07-27T16:32:58.022Z,33.33
2022-07-27T16:38:01.107Z,34.82
2022-07-27T16:43:05.291Z,33.84
2022-07-27T16:48:08.125Z,33.15
2022-07-27T16:53:10.825Z,33.29
2022-07-27T16:58:14.876Z,33.39
2022-07-27T17:03:17.604Z,32.97
2022-07-27T17:08:20.431Z,32.86
2022-07-27T17:13:34.240Z,31.65
2022-07-27T17:18:40.495Z,32.23
2022-07-27T17:23:43.916Z,31.98
2022-07-27T17:28:48.181Z,31.81
2022-07-27T17:33:52.429Z,30.98
2022-07-27T17:38:55.455Z,30.56
2022-07-27T17:43:59.745Z,31.22
2022-07-27T17:49:02.495Z,32.68
2022-07-27T17:54:05.610Z,33.93
2022-07-27T17:59:35.176Z,33.83
2022-07-27T18:04:38.919Z,34.27
2022-07-27T18:09:42.563Z,34.73
2022-07-27T18:15:00.558Z,34.45
2022-07-27T18:20:03.230Z,33.70
2022-07-27T18:25:07.167Z,33.73
2022-07-27T18:30:12.905Z,34.19
2022-07-27T18:35:15.730Z,34.65
2022-07-27T18:40:18.681Z,35.14
2022-07-27T18:45:22.772Z,35.91
2022-07-27T18:50:39.601Z,36.58
2022-07-27T18:55:42.616Z,36.94
2022-07-27T19:00:46.790Z,37.32
2022-07-27T19:05:50.898Z,38.08
2022-07-27T19:10:55.701Z,38.45
2022-07-27T19:16:00.827Z,38.66
2022-07-27T19:21:03.737Z,39.40
2022-07-27T19:26:06.935Z,39.49
2022-07-27T19:31:22.730Z,39.51
2022-07-27T19:36:26.431Z,39.81
2022-07-27T19:41:29.206Z,40.23
2022-07-27T19:46:33.541Z,40.56
2022-07-27T19:51:36.258Z,40.93
2022-07-27T19:56:39.043Z,41.27
2022-07-27T20:01:43.138Z,41.85
2022-07-27T20:06:45.915Z,42.07
2022-07-27T20:11:48.664Z,42.71
2022-07-27T20:16:56.222Z,43.22
2022-07-27T20:21:59.830Z,43.16
2022-07-27T20:27:02.574Z,43.79
2022-07-27T20:32:07.508Z,44.28
2022-07-27T20:37:10.221Z,44.36
2022-07-27T20:42:13.078Z,44.70
2022-07-27T20:47:17.175Z,45.20
2022-07-27T20:52:19.908Z,45.69
2022-07-27T20:57:22.621Z,46.50
2022-07-27T21:02:26.746Z,46.53
2022-07-27T21:07:29.463Z,46.31
2022-07-27T21:12:32.406Z,46.54
2022-07-27T21:17:36.507Z,46.73
2022-07-27T21:22:39.290Z,47.36
2022-07-27T21:27:42.023Z,47.68
2022-07-27T21:32:47.477Z,48.16
2022-07-27T21:37:50.424Z,48.34
2022-07-27T21:42:53.188Z,48.53
2022-07-27T21:47:57.376Z,48.81
2022-07-27T21:53:00.140Z,49.02
2022-07-27T21:58:02.886Z,49.50
2022-07-27T22:03:07.252Z,50.38
2022-07-27T22:08:09.964Z,50.67
2022-07-27T22:13:12.757Z,50.36
2022-07-27T22:18:20.498Z,50.82
2022-07-27T22:23:23.220Z,50.88
2022-07-27T22:28:26.330Z,52.03
2022-07-27T22:33:30.600Z,52.05
2022-07-27T22:38:33.344Z,51.60
2022-07-27T22:43:36.186Z,51.74
2022-07-27T22:48:40.361Z,51.89
2022-07-27T22:53:43.130Z,52.47
2022-07-27T22:58:46.306Z,52.71
2022-07-27T23:03:50.489Z,52.50
2022-07-27T23:08:53.164Z,52.71
2022-07-27T23:13:56.162Z,52.83
2022-07-27T23:19:00.339Z,53.14
2022-07-27T23:24:09.452Z,53.34
2022-07-27T23:29:12.695Z,53.63
2022-07-27T23:34:16.996Z,53.83
2022-07-27T23:39:19.779Z,53.94
2022-07-27T23:44:22.406Z,54.11
2022-07-27T23:49:26.597Z,54.33
2022-07-27T23:54:30.137Z,54.72
2022-07-27T23:59:32.822Z,55.10
